Time;durP1;ratioP1;P1;durP2;ratioP2;P2;SDS_P1;SDS_P2;PMS_P1;PMS_P2;Temp;Humidity;BMP_temperature;BMP_pressure;BME280_temperature;BME280_humidity;BME280_pressure;Samples;Min_cycle;Max_cycle;Signal;HPM_P1;HPM_P2
2023/01/29 15:48:36;;;;;;;25.90;12.50;;;0.00;99.90;;;;;;7056608;19;10002250;-73
2023/01/29 15:51:14;;;;;;;28.95;13.13;;;-0.10;99.90;;;;;;7608164;19;20014;-72
2023/01/29 15:53:53;;;;;;;31.38;16.13;;;0.00;99.90;;;;;;7568412;19;20048;-71
2023/01/29 15:56:29;;;;;;;30.20;14.75;;;0.00;99.90;;;;;;7559436;19;20368;-72
2023/01/29 15:59:05;;;;;;;28.10;13.05;;;0.00;99.90;;;;;;7592632;19;20006;-72
2023/01/29 16:01:41;;;;;;;40.55;17.45;;;0.00;99.90;;;;;;7563302;19;20048;-72
2023/01/29 16:04:21;;;;;;;37.72;17.85;;;0.10;99.90;;;;;;7586039;19;20009;-72
2023/01/29 16:06:54;;;;;;;36.42;19.05;;;0.20;99.90;;;;;;7558535;19;21162;-72
2023/01/29 16:09:28;;;;;;;31.77;16.25;;;0.30;99.90;;;;;;7616567;19;20485;-71
2023/01/29 16:12:01;;;;;;;30.70;15.80;;;0.30;99.90;;;;;;7623422;19;20090;-73
2023/01/29 16:14:33;;;;;;;36.85;17.83;;;0.40;99.90;;;;;;7607221;19;20018;-72
2023/01/29 16:17:29;;;;;;;32.65;17.40;;;0.50;99.90;;;;;;7612666;19;20010;-72
2023/01/29 16:20:04;;;;;;;33.90;17.33;;;0.50;99.90;;;;;;7560021;19;20108;-72
2023/01/29 16:22:37;;;;;;;35.67;18.67;;;0.50;99.90;;;;;;7570728;19;20017;-73
2023/01/29 16:25:13;;;;;;;47.63;20.63;;;0.50;99.90;;;;;;7608747;19;20024;-73
2023/01/29 16:27:46;;;;;;;42.33;19.08;;;0.50;99.90;;;;;;7592771;19;20018;-72
2023/01/29 16:30:18;;;;;;;29.00;15.63;;;0.50;99.90;;;;;;7608043;19;20279;-72
2023/01/29 16:32:50;;;;;;;31.08;15.82;;;0.50;99.90;;;;;;7624474;19;20015;-72
2023/01/29 16:35:22;;;;;;;36.20;18.02;;;0.50;99.90;;;;;;7597150;19;20022;-72
2023/01/29 16:38:03;;;;;;;32.37;16.20;;;0.50;99.90;;;;;;7606767;19;20014;-72
2023/01/29 16:40:37;;;;;;;32.63;17.08;;;0.50;99.90;;;;;;7558872;19;20374;-73
2023/01/29 16:43:24;;;;;;;36.33;19.55;;;0.60;99.90;;;;;;7554885;19;21670;-72
2023/01/29 16:46:15;;;;;;;39.85;19.38;;;0.50;99.90;;;;;;7570324;19;20987;-72
2023/01/29 16:48:47;;;;;;;39.17;19.10;;;0.50;99.90;;;;;;7556016;19;20010;-72
2023/01/29 16:51:22;;;;;;;39.13;20.95;;;0.50;99.90;;;;;;7582600;19;20006;-71
2023/01/29 16:54:06;;;;;;;38.47;19.48;;;0.60;99.90;;;;;;7597637;19;20010;-72
2023/01/29 16:56:38;;;;;;;20.73;9.88;;;0.60;99.90;;;;;;7573816;19;20454;-72
2023/01/29 16:59:32;;;;;;;23.50;13.40;;;0.50;99.90;;;;;;7541918;19;21815;-72
2023/01/29 17:02:20;;;;;;;32.60;14.40;;;0.50;99.90;;;;;;7548708;19;20014;-72
2023/01/29 17:04:57;;;;;;;25.17;12.48;;;0.50;99.90;;;;;;7522919;19;20053;-72
2023/01/29 17:07:31;;;;;;;24.50;11.68;;;0.40;99.90;;;;;;7556690;19;20408;-71
2023/01/29 17:10:05;;;;;;;26.92;14.65;;;0.50;99.90;;;;;;7540336;19;20015;-72
2023/01/29 17:12:37;;;;;;;28.83;14.80;;;0.50;99.90;;;;;;7550616;19;20018;-71
2023/01/29 17:15:31;;;;;;;26.73;15.07;;;0.40;99.90;;;;;;7540280;19;20013;-71
2023/01/29 17:18:14;;;;;;;35.53;15.93;;;0.40;99.90;;;;;;7572816;19;20495;-72
2023/01/29 17:20:47;;;;;;;29.85;13.80;;;0.50;99.90;;;;;;7559721;19;20536;-72
2023/01/29 17:23:21;;;;;;;34.22;18.17;;;0.50;99.90;;;;;;7577227;19;20011;-73
2023/01/29 17:25:53;;;;;;;32.50;17.05;;;0.40;99.90;;;;;;7535738;19;20022;-72
2023/01/29 17:28:25;;;;;;;35.13;16.85;;;0.40;99.90;;;;;;7521605;19;20056;-73
2023/01/29 17:30:58;;;;;;;36.15;19.05;;;0.30;99.90;;;;;;7545230;19;20014;-73
2023/01/29 17:33:42;;;;;;;45.28;20.52;;;0.30;99.90;;;;;;7552840;19;20011;-72
2023/01/29 17:36:16;;;;;;;40.97;19.67;;;0.20;99.90;;;;;;7560944;19;20018;-72
2023/01/29 17:38:48;;;;;;;;;;;0.30;99.90;;;;;;7565360;19;20019;-72
2023/01/29 17:41:25;;;;;;;32.53;16.17;;;0.30;99.90;;;;;;7552475;19;20561;-71
2023/01/29 17:43:57;;;;;;;68.13;28.15;;;0.30;99.90;;;;;;7555647;19;20018;-72
2023/01/29 17:46:29;;;;;;;43.70;21.23;;;0.30;99.90;;;;;;7550173;19;20545;-71
2023/01/29 17:49:03;;;;;;;43.10;20.45;;;0.20;99.90;;;;;;7533613;19;20014;-72
2023/01/29 17:51:36;;;;;;;40.22;20.00;;;0.30;99.90;;;;;;7551630;19;20014;-72
2023/01/29 17:54:07;;;;;;;37.97;19.63;;;0.30;99.90;;;;;;7513647;19;20015;-74
2023/01/29 17:56:40;;;;;;;44.67;16.88;;;0.30;99.90;;;;;;7569637;19;20124;-73
2023/01/29 17:59:15;;;;;;;34.63;18.13;;;0.30;99.90;;;;;;6058460;19;10000308;-73
2023/01/29 18:01:48;;;;;;;45.08;20.88;;;0.40;99.90;;;;;;7547529;19;20015;-70
2023/01/29 18:04:21;;;;;;;43.53;21.42;;;0.30;99.90;;;;;;7568491;19;21023;-73
2023/01/29 18:06:56;;;;;;;44.23;21.50;;;0.20;99.90;;;;;;7556300;19;20022;-71
2023/01/29 18:09:28;;;;;;;41.03;20.60;;;0.20;99.90;;;;;;7554457;19;20043;-72
2023/01/29 18:12:00;;;;;;;37.40;19.00;;;0.20;99.90;;;;;;7549968;19;20010;-73
2023/01/29 18:14:32;;;;;;;34.50;17.20;;;0.20;99.90;;;;;;7580937;19;20025;-73
2023/01/29 18:17:04;;;;;;;32.30;16.27;;;0.20;99.90;;;;;;7555904;19;20090;-72
2023/01/29 18:19:37;;;;;;;18.67;8.32;;;0.30;99.90;;;;;;7549051;19;20018;-73
2023/01/29 18:22:12;;;;;;;;;;;0.40;99.90;;;;;;7509121;19;20022;-72
2023/01/29 18:24:44;;;;;;;29.83;14.88;;;0.40;99.90;;;;;;7540862;19;19933;-72
2023/01/29 18:27:16;;;;;;;36.15;18.02;;;0.40;99.90;;;;;;7550144;19;20040;-72
2023/01/29 18:29:49;;;;;;;37.17;18.88;;;0.20;99.90;;;;;;7557747;19;20825;-72
2023/01/29 18:32:21;;;;;;;28.92;15.73;;;0.10;99.90;;;;;;7515602;19;20920;-73
2023/01/29 18:34:54;;;;;;;35.53;17.00;;;0.10;99.90;;;;;;7544059;19;20744;-72
2023/01/29 18:37:28;;;;;;;31.30;16.60;;;0.20;99.90;;;;;;7543775;19;20098;-72
2023/01/29 18:40:00;;;;;;;32.08;15.25;;;0.20;99.90;;;;;;7551483;19;21775;-71
2023/01/29 18:42:34;;;;;;;29.40;13.43;;;0.20;99.90;;;;;;7558214;19;20700;-74
2023/01/29 18:45:07;;;;;;;32.50;16.45;;;0.20;99.90;;;;;;7530671;19;20018;-73
2023/01/29 18:47:40;;;;;;;38.60;19.92;;;0.10;99.90;;;;;;7568482;19;20105;-74
2023/01/29 18:50:12;;;;;;;35.55;14.25;;;-0.10;99.90;;;;;;7535209;19;20019;-73
2023/01/29 18:52:45;;;;;;;33.00;17.50;;;0.00;99.90;;;;;;7537686;19;20086;-72
2023/01/29 18:55:17;;;;;;;32.73;16.97;;;-0.10;99.90;;;;;;7565138;19;20014;-72
2023/01/29 18:57:52;;;;;;;35.60;17.67;;;-0.10;99.90;;;;;;7543241;19;20283;-72
2023/01/29 19:00:44;;;;;;;32.72;17.25;;;-0.10;99.90;;;;;;7553626;19;20014;-74
2023/01/29 19:03:16;;;;;;;36.60;18.15;;;-0.10;99.90;;;;;;7552509;19;20006;-72
2023/01/29 19:05:49;;;;;;;34.97;19.00;;;-0.10;99.90;;;;;;7523533;19;20021;-70
2023/01/29 19:08:21;;;;;;;29.73;14.07;;;-0.20;99.90;;;;;;7538458;19;20060;-71
2023/01/29 19:10:53;;;;;;;33.65;16.80;;;-0.10;99.90;;;;;;7535430;19;20037;-72
2023/01/29 19:13:25;;;;;;;35.78;18.05;;;-0.20;99.90;;;;;;7530038;19;20018;-71
2023/01/29 19:15:58;;;;;;;35.30;17.30;;;-0.30;99.90;;;;;;7549322;19;20356;-71
2023/01/29 19:18:30;;;;;;;35.78;19.55;;;-0.20;99.90;;;;;;7504429;19;20010;-71
2023/01/29 19:21:07;;;;;;;34.25;18.50;;;-0.30;99.90;;;;;;7540346;19;20021;-73
2023/01/29 19:23:40;;;;;;;35.38;18.27;;;-0.40;99.90;;;;;;7509453;19;20014;-71
2023/01/29 19:26:13;;;;;;;37.00;18.35;;;-0.40;99.90;;;;;;7525266;19;20022;-71
2023/01/29 19:28:45;;;;;;;37.20;20.13;;;-0.50;99.90;;;;;;7495163;19;20011;-71
2023/01/29 19:31:17;;;;;;;40.80;20.70;;;-0.50;99.90;;;;;;7499791;19;20049;-71
2023/01/29 19:33:50;;;;;;;38.55;20.48;;;-0.70;99.90;;;;;;7507552;19;20010;-71
2023/01/29 19:36:22;;;;;;;40.47;19.67;;;-0.60;99.90;;;;;;7527794;19;20744;-72
2023/01/29 19:38:54;;;;;;;40.58;21.10;;;-0.70;99.90;;;;;;7529616;19;20014;-73
2023/01/29 19:41:26;;;;;;;39.70;20.33;;;-0.70;99.90;;;;;;7515595;19;25352;-72
2023/01/29 19:43:58;;;;;;;45.83;21.55;;;-0.70;99.90;;;;;;7502421;19;21003;-71
2023/01/29 19:46:31;;;;;;;41.33;20.53;;;-0.70;99.90;;;;;;7532103;19;20489;-72
2023/01/29 19:49:05;;;;;;;40.30;21.17;;;-0.80;99.90;;;;;;7505399;19;20014;-73
2023/01/29 19:51:38;;;;;;;47.17;23.77;;;-0.80;99.90;;;;;;7547252;19;21054;-71
2023/01/29 19:54:11;;;;;;;48.47;23.13;;;-0.90;99.90;;;;;;7555694;19;20010;-72
